sensor_id;sensor_type;location;lat;lon;timestamp;pressure;altitude;pressure_sealevel;temperature;humidity
70730;BME280;58315;53.336;55.932;2023-02-13T00:00:14;100552.81;;;-7.33;48.28
70730;BME280;58315;53.336;55.932;2023-02-13T00:02:40;100567.38;;;-7.43;48.68
70730;BME280;58315;53.336;55.932;2023-02-13T00:05:06;100560.53;;;-7.35;48.66
70730;BME280;58315;53.336;55.932;2023-02-13T00:07:32;100548.56;;;-7.31;48.44
70730;BME280;58315;53.336;55.932;2023-02-13T00:09:58;100541.66;;;-7.24;48.40
70730;BME280;58315;53.336;55.932;2023-02-13T00:12:24;100545.94;;;-7.28;48.01
70730;BME280;58315;53.336;55.932;2023-02-13T00:14:50;100545.09;;;-7.19;47.71
70730;BME280;58315;53.336;55.932;2023-02-13T00:17:16;100546.78;;;-7.12;48.21
70730;BME280;58315;53.336;55.932;2023-02-13T00:19:42;100541.59;;;-7.06;47.58
70730;BME280;58315;53.336;55.932;2023-02-13T00:22:08;100555.28;;;-6.95;47.66
70730;BME280;58315;53.336;55.932;2023-02-13T00:24:34;100572.38;;;-6.85;47.78
70730;BME280;58315;53.336;55.932;2023-02-13T00:27:00;100551.78;;;-6.75;47.76
70730;BME280;58315;53.336;55.932;2023-02-13T00:29:26;100553.50;;;-6.77;47.48
70730;BME280;58315;53.336;55.932;2023-02-13T00:31:52;100568.06;;;-6.76;47.46
70730;BME280;58315;53.336;55.932;2023-02-13T00:34:18;100573.19;;;-6.76;47.60
70730;BME280;58315;53.336;55.932;2023-02-13T00:37:02;100566.41;;;-6.84;48.10
70730;BME280;58315;53.336;55.932;2023-02-13T00:39:29;100564.69;;;-6.86;48.29
70730;BME280;58315;53.336;55.932;2023-02-13T00:41:54;100567.16;;;-6.63;48.52
70730;BME280;58315;53.336;55.932;2023-02-13T00:44:20;100556.84;;;-6.57;48.15
70730;BME280;58315;53.336;55.932;2023-02-13T00:46:46;100553.41;;;-6.59;48.45
70730;BME280;58315;53.336;55.932;2023-02-13T00:49:13;100541.47;;;-6.69;48.82
70730;BME280;58315;53.336;55.932;2023-02-13T00:51:38;100547.44;;;-6.66;48.77
70730;BME280;58315;53.336;55.932;2023-02-13T00:54:23;100542.34;;;-6.72;48.81
70730;BME280;58315;53.336;55.932;2023-02-13T00:56:49;100539.75;;;-6.67;48.85
70730;BME280;58315;53.336;55.932;2023-02-13T00:59:15;100532.84;;;-6.59;48.99
70730;BME280;58315;53.336;55.932;2023-02-13T01:01:42;100540.56;;;-6.59;48.74
70730;BME280;58315;53.336;55.932;2023-02-13T01:04:08;100550.81;;;-6.53;48.54
70730;BME280;58315;53.336;55.932;2023-02-13T01:06:34;100538.88;;;-6.66;49.10
70730;BME280;58315;53.336;55.932;2023-02-13T01:09:02;100545.72;;;-6.61;48.82
70730;BME280;58315;53.336;55.932;2023-02-13T01:11:28;100540.59;;;-6.61;48.77
70730;BME280;58315;53.336;55.932;2023-02-13T01:13:54;100550.88;;;-6.61;48.88
70730;BME280;58315;53.336;55.932;2023-02-13T01:16:20;100539.75;;;-6.67;48.65
70730;BME280;58315;53.336;55.932;2023-02-13T01:18:46;100551.75;;;-6.66;48.71
70730;BME280;58315;53.336;55.932;2023-02-13T01:21:19;100558.63;;;-6.68;48.46
70730;BME280;58315;53.336;55.932;2023-02-13T01:23:46;100556.09;;;-6.79;48.84
70730;BME280;58315;53.336;55.932;2023-02-13T01:26:23;100546.63;;;-6.68;48.78
70730;BME280;58315;53.336;55.932;2023-02-13T01:28:53;100555.19;;;-6.70;48.70
70730;BME280;58315;53.336;55.932;2023-02-13T01:31:20;100546.59;;;-6.66;48.79
70730;BME280;58315;53.336;55.932;2023-02-13T01:33:49;100544.91;;;-6.69;48.85
70730;BME280;58315;53.336;55.932;2023-02-13T01:36:15;100551.78;;;-6.72;49.33
70730;BME280;58315;53.336;55.932;2023-02-13T01:38:42;100536.31;;;-6.69;49.00
70730;BME280;58315;53.336;55.932;2023-02-13T01:41:08;100540.63;;;-6.74;49.29
70730;BME280;58315;53.336;55.932;2023-02-13T01:43:56;100538.91;;;-6.68;49.19
70730;BME280;58315;53.336;55.932;2023-02-13T01:46:35;100536.38;;;-6.72;49.50
70730;BME280;58315;53.336;55.932;2023-02-13T01:49:09;100539.84;;;-6.86;49.82
70730;BME280;58315;53.336;55.932;2023-02-13T01:51:37;100530.47;;;-7.04;50.36
70730;BME280;58315;53.336;55.932;2023-02-13T01:54:10;100533.00;;;-6.96;50.33
70730;BME280;58315;53.336;55.932;2023-02-13T01:56:49;100529.56;;;-6.92;50.26
70730;BME280;58315;53.336;55.932;2023-02-13T01:59:25;100531.31;;;-6.91;50.37
70730;BME280;58315;53.336;55.932;2023-02-13T02:01:52;100523.63;;;-7.03;50.32
70730;BME280;58315;53.336;55.932;2023-02-13T02:04:25;100530.47;;;-7.10;50.52
70730;BME280;58315;53.336;55.932;2023-02-13T02:06:57;100529.66;;;-7.15;50.60
70730;BME280;58315;53.336;55.932;2023-02-13T02:09:33;100529.63;;;-7.01;50.55
70730;BME280;58315;53.336;55.932;2023-02-13T02:12:08;100523.59;;;-6.98;50.83
70730;BME280;58315;53.336;55.932;2023-02-13T02:14:38;100512.47;;;-7.02;50.62
70730;BME280;58315;53.336;55.932;2023-02-13T02:17:07;100527.88;;;-6.99;50.86
70730;BME280;58315;53.336;55.932;2023-02-13T02:20:09;100522.72;;;-6.90;50.49
70730;BME280;58315;53.336;55.932;2023-02-13T02:32:01;100516.00;;;-7.31;50.97
70730;BME280;58315;53.336;55.932;2023-02-13T02:43:08;100515.13;;;-7.25;51.06
70730;BME280;58315;53.336;55.932;2023-02-13T02:48:31;100524.50;;;-7.13;50.99
70730;BME280;58315;53.336;55.932;2023-02-13T02:57:31;100535.72;;;-7.42;50.48
70730;BME280;58315;53.336;55.932;2023-02-13T03:00:20;100540.84;;;-7.34;51.02
70730;BME280;58315;53.336;55.932;2023-02-13T03:03:15;100540.81;;;-7.22;50.89
70730;BME280;58315;53.336;55.932;2023-02-13T03:06:03;100541.63;;;-7.17;50.46
70730;BME280;58315;53.336;55.932;2023-02-13T03:08:39;100536.50;;;-7.12;50.20
70730;BME280;58315;53.336;55.932;2023-02-13T03:11:26;100546.81;;;-7.32;49.86
70730;BME280;58315;53.336;55.932;2023-02-13T03:14:29;100545.09;;;-7.29;50.20
70730;BME280;58315;53.336;55.932;2023-02-13T03:16:57;100547.66;;;-7.19;50.34
70730;BME280;58315;53.336;55.932;2023-02-13T03:28:45;100536.53;;;-7.18;50.30
70730;BME280;58315;53.336;55.932;2023-02-13T03:31:53;100544.22;;;-7.09;50.55
70730;BME280;58315;53.336;55.932;2023-02-13T03:34:31;100535.66;;;-7.17;50.52
70730;BME280;58315;53.336;55.932;2023-02-13T03:37:26;100543.41;;;-7.23;50.55
70730;BME280;58315;53.336;55.932;2023-02-13T03:40:34;100539.09;;;-7.21;50.22
70730;BME280;58315;53.336;55.932;2023-02-13T03:43:12;100531.41;;;-7.23;50.46
70730;BME280;58315;53.336;55.932;2023-02-13T03:45:44;100533.97;;;-7.20;50.26
70730;BME280;58315;53.336;55.932;2023-02-13T03:48:25;100529.69;;;-7.25;50.35
70730;BME280;58315;53.336;55.932;2023-02-13T03:51:18;100528.00;;;-7.23;50.62
70730;BME280;58315;53.336;55.932;2023-02-13T03:53:51;100524.53;;;-7.22;50.78
70730;BME280;58315;53.336;55.932;2023-02-13T03:56:21;100516.00;;;-7.23;50.79
70730;BME280;58315;53.336;55.932;2023-02-13T03:59:07;100522.81;;;-7.20;50.97
70730;BME280;58315;53.336;55.932;2023-02-13T04:02:10;100530.47;;;-7.04;50.83
70730;BME280;58315;53.336;55.932;2023-02-13T04:07:12;100519.25;;;-6.84;50.82
70730;BME280;58315;53.336;55.932;2023-02-13T04:10:02;100502.09;;;-6.76;51.05
70730;BME280;58315;53.336;55.932;2023-02-13T04:12:51;100514.03;;;-6.64;51.05
70730;BME280;58315;53.336;55.932;2023-02-13T04:15:45;100514.88;;;-6.61;51.12
70730;BME280;58315;53.336;55.932;2023-02-13T04:20:41;100508.81;;;-6.55;51.22
70730;BME280;58315;53.336;55.932;2023-02-13T04:23:26;100498.53;;;-6.55;51.39
70730;BME280;58315;53.336;55.932;2023-02-13T04:25:54;100496.78;;;-6.47;51.53
70730;BME280;58315;53.336;55.932;2023-02-13T04:28:21;100507.91;;;-6.45;51.66
70730;BME280;58315;53.336;55.932;2023-02-13T04:30:47;100515.53;;;-6.33;52.00
70730;BME280;58315;53.336;55.932;2023-02-13T04:33:14;100512.06;;;-6.24;51.88
70730;BME280;58315;53.336;55.932;2023-02-13T04:35:40;100511.97;;;-6.10;51.83
70730;BME280;58315;53.336;55.932;2023-02-13T04:38:06;100518.72;;;-5.97;51.84
70730;BME280;58315;53.336;55.932;2023-02-13T04:40:33;100528.03;;;-5.85;51.85
70730;BME280;58315;53.336;55.932;2023-02-13T04:42:59;100528.06;;;-5.90;51.67
70730;BME280;58315;53.336;55.932;2023-02-13T04:45:25;100528.03;;;-5.85;51.30
70730;BME280;58315;53.336;55.932;2023-02-13T04:47:52;100527.09;;;-5.76;51.11
70730;BME280;58315;53.336;55.932;2023-02-13T04:50:19;100535.59;;;-5.67;51.12
70730;BME280;58315;53.336;55.932;2023-02-13T04:52:45;100527.88;;;-5.68;50.82
70730;BME280;58315;53.336;55.932;2023-02-13T04:55:12;100533.84;;;-5.63;50.87
70730;BME280;58315;53.336;55.932;2023-02-13T04:57:38;100526.09;;;-5.60;51.17
70730;BME280;58315;53.336;55.932;2023-02-13T05:00:05;100521.81;;;-5.61;51.11
70730;BME280;58315;53.336;55.932;2023-02-13T05:02:31;100529.50;;;-5.60;51.32
70730;BME280;58315;53.336;55.932;2023-02-13T05:04:57;100522.56;;;-5.50;50.87
70730;BME280;58315;53.336;55.932;2023-02-13T05:07:23;100527.78;;;-5.58;50.80
70730;BME280;58315;53.336;55.932;2023-02-13T05:09:49;100529.44;;;-5.50;50.79
70730;BME280;58315;53.336;55.932;2023-02-13T05:12:15;100538.91;;;-5.51;50.70
70730;BME280;58315;53.336;55.932;2023-02-13T05:14:41;100538.84;;;-5.46;51.09
70730;BME280;58315;53.336;55.932;2023-02-13T05:17:07;100528.44;;;-5.36;51.24
70730;BME280;58315;53.336;55.932;2023-02-13T05:19:33;100528.34;;;-5.26;50.88
70730;BME280;58315;53.336;55.932;2023-02-13T05:21:59;100531.81;;;-5.30;50.78
70730;BME280;58315;53.336;55.932;2023-02-13T05:24:43;100533.44;;;-5.19;51.11
70730;BME280;58315;53.336;55.932;2023-02-13T05:27:09;100529.09;;;-5.15;50.72
70730;BME280;58315;53.336;55.932;2023-02-13T05:29:35;100528.13;;;-5.06;50.40
70730;BME280;58315;53.336;55.932;2023-02-13T05:32:19;100529.88;;;-5.10;50.39
70730;BME280;58315;53.336;55.932;2023-02-13T05:34:45;100513.53;;;-5.07;50.26
70730;BME280;58315;53.336;55.932;2023-02-13T05:37:11;100518.59;;;-5.00;50.74
70730;BME280;58315;53.336;55.932;2023-02-13T05:39:37;100521.84;;;-4.84;50.85
70730;BME280;58315;53.336;55.932;2023-02-13T05:42:03;100507.94;;;-4.72;50.32
70730;BME280;58315;53.336;55.932;2023-02-13T05:44:30;100513.88;;;-4.64;49.98
70730;BME280;58315;53.336;55.932;2023-02-13T05:46:56;100512.22;;;-4.71;49.67
70730;BME280;58315;53.336;55.932;2023-02-13T05:49:22;100523.41;;;-4.72;49.91
70730;BME280;58315;53.336;55.932;2023-02-13T05:51:48;100512.97;;;-4.63;49.82
70730;BME280;58315;53.336;55.932;2023-02-13T05:54:16;100507.72;;;-4.55;49.97
70730;BME280;58315;53.336;55.932;2023-02-13T05:56:43;100515.31;;;-4.46;49.68
70730;BME280;58315;53.336;55.932;2023-02-13T05:59:09;100507.72;;;-4.55;49.69
70730;BME280;58315;53.336;55.932;2023-02-13T06:01:35;100511.34;;;-4.70;49.60
70730;BME280;58315;53.336;55.932;2023-02-13T06:04:19;100495.97;;;-4.78;49.93
70730;BME280;58315;53.336;55.932;2023-02-13T06:06:45;100503.78;;;-4.82;49.96
70730;BME280;58315;53.336;55.932;2023-02-13T06:09:11;100501.13;;;-4.79;50.08
70730;BME280;58315;53.336;55.932;2023-02-13T06:11:55;100488.34;;;-4.86;50.18
70730;BME280;58315;53.336;55.932;2023-02-13T06:14:21;100492.56;;;-4.80;50.24
70730;BME280;58315;53.336;55.932;2023-02-13T06:16:47;100498.50;;;-4.73;50.41
70730;BME280;58315;53.336;55.932;2023-02-13T06:19:13;100504.50;;;-4.73;50.39
70730;BME280;58315;53.336;55.932;2023-02-13T06:21:39;100504.50;;;-4.73;50.39
70730;BME280;58315;53.336;55.932;2023-02-13T06:24:06;100503.53;;;-4.64;50.38
70730;BME280;58315;53.336;55.932;2023-02-13T06:26:33;100505.09;;;-4.54;50.29
70730;BME280;58315;53.336;55.932;2023-02-13T06:28:59;100496.44;;;-4.50;49.91
70730;BME280;58315;53.336;55.932;2023-02-13T06:31:25;100504.94;;;-4.42;50.08
70730;BME280;58315;53.336;55.932;2023-02-13T06:33:51;100501.41;;;-4.34;50.10
70730;BME280;58315;53.336;55.932;2023-02-13T06:36:17;100507.38;;;-4.31;49.63
70730;BME280;58315;53.336;55.932;2023-02-13T06:38:43;100507.25;;;-4.25;49.75
70730;BME280;58315;53.336;55.932;2023-02-13T06:41:09;100493.44;;;-4.19;49.82
70730;BME280;58315;53.336;55.932;2023-02-13T06:43:35;100491.59;;;-4.13;49.85
70730;BME280;58315;53.336;55.932;2023-02-13T06:46:05;100497.66;;;-4.15;50.14
70730;BME280;58315;53.336;55.932;2023-02-13T06:48:31;100502.78;;;-4.12;50.02
70730;BME280;58315;53.336;55.932;2023-02-13T06:50:57;100498.47;;;-4.12;49.90
70730;BME280;58315;53.336;55.932;2023-02-13T06:53:23;100495.00;;;-4.10;49.73
70730;BME280;58315;53.336;55.932;2023-02-13T06:55:51;100500.22;;;-4.14;49.84
70730;BME280;58315;53.336;55.932;2023-02-13T06:58:18;100499.34;;;-4.13;49.91
70730;BME280;58315;53.336;55.932;2023-02-13T07:00:45;100503.41;;;-3.98;50.06
70730;BME280;58315;53.336;55.932;2023-02-13T07:03:11;100505.06;;;-3.94;49.60
70730;BME280;58315;53.336;55.932;2023-02-13T07:05:39;100501.56;;;-3.90;49.77
70730;BME280;58315;53.336;55.932;2023-02-13T07:08:06;100509.09;;;-3.77;49.75
70730;BME280;58315;53.336;55.932;2023-02-13T07:10:32;100511.63;;;-3.73;49.63
70730;BME280;58315;53.336;55.932;2023-02-13T07:12:58;100496.00;;;-3.67;49.43
70730;BME280;58315;53.336;55.932;2023-02-13T07:15:24;100495.91;;;-3.60;49.17
70730;BME280;58315;53.336;55.932;2023-02-13T07:17:57;100481.28;;;-3.61;49.04
70730;BME280;58315;53.336;55.932;2023-02-13T07:20:24;100482.28;;;-3.69;49.41
70730;BME280;58315;53.336;55.932;2023-02-13T07:22:50;100481.94;;;-3.52;49.46
70730;BME280;58315;53.336;55.932;2023-02-13T07:25:17;100488.59;;;-3.40;49.21
70730;BME280;58315;53.336;55.932;2023-02-13T07:27:43;100490.94;;;-3.26;48.91
70730;BME280;58315;53.336;55.932;2023-02-13T07:30:28;100479.59;;;-3.19;49.08
70730;BME280;58315;53.336;55.932;2023-02-13T07:33:00;100471.75;;;-3.13;48.72
70730;BME280;58315;53.336;55.932;2023-02-13T07:35:27;100470.63;;;-3.01;48.49
70730;BME280;58315;53.336;55.932;2023-02-13T07:37:53;100473.84;;;-2.90;48.42
70730;BME280;58315;53.336;55.932;2023-02-13T07:40:20;100472.88;;;-2.84;48.24
70730;BME280;58315;53.336;55.932;2023-02-13T07:42:46;100476.09;;;-2.73;48.23
70730;BME280;58315;53.336;55.932;2023-02-13T07:45:12;100470.63;;;-2.61;48.06
70730;BME280;58315;53.336;55.932;2023-02-13T07:47:41;100461.84;;;-2.54;48.29
70730;BME280;58315;53.336;55.932;2023-02-13T07:50:07;100469.78;;;-2.24;47.91
70730;BME280;58315;53.336;55.932;2023-02-13T07:52:33;100468.94;;;-2.25;47.72
70730;BME280;58315;53.336;55.932;2023-02-13T07:55:01;100458.78;;;-2.32;47.58
70730;BME280;58315;53.336;55.932;2023-02-13T07:57:29;100456.72;;;-2.18;48.12
70730;BME280;58315;53.336;55.932;2023-02-13T07:59:56;100451.28;;;-2.09;47.73
70730;BME280;58315;53.336;55.932;2023-02-13T08:02:22;100452.75;;;-1.97;47.24
70730;BME280;58315;53.336;55.932;2023-02-13T08:04:48;100460.47;;;-1.96;47.90
70730;BME280;58315;53.336;55.932;2023-02-13T08:07:15;100445.50;;;-1.84;47.71
70730;BME280;58315;53.336;55.932;2023-02-13T08:09:45;100455.59;;;-1.74;47.49
70730;BME280;58315;53.336;55.932;2023-02-13T08:12:38;100453.56;;;-1.62;47.18
70730;BME280;58315;53.336;55.932;2023-02-13T08:15:05;100441.69;;;-1.38;47.56
70730;BME280;58315;53.336;55.932;2023-02-13T08:17:31;100453.34;;;-1.55;46.53
70730;BME280;58315;53.336;55.932;2023-02-13T08:19:57;100451.88;;;-1.32;46.65
70730;BME280;58315;53.336;55.932;2023-02-13T08:22:23;100449.59;;;-1.43;46.70
70730;BME280;58315;53.336;55.932;2023-02-13T08:24:49;100455.47;;;-1.69;46.63
70730;BME280;58315;53.336;55.932;2023-02-13T08:27:15;100456.38;;;-1.70;47.11
70730;BME280;58315;53.336;55.932;2023-02-13T08:29:41;100453.84;;;-1.73;46.86
70730;BME280;58315;53.336;55.932;2023-02-13T08:32:07;100451.66;;;-1.56;46.89
70730;BME280;58315;53.336;55.932;2023-02-13T08:34:33;100447.97;;;-1.47;46.57
70730;BME280;58315;53.336;55.932;2023-02-13T08:37:00;100443.13;;;-1.28;46.87
70730;BME280;58315;53.336;55.932;2023-02-13T08:39:26;100433.41;;;-1.20;46.78
70730;BME280;58315;53.336;55.932;2023-02-13T08:41:52;100424.78;;;-1.20;46.63
70730;BME280;58315;53.336;55.932;2023-02-13T08:44:18;100432.59;;;-1.22;46.70
70730;BME280;58315;53.336;55.932;2023-02-13T08:46:44;100424.81;;;-1.22;46.47
70730;BME280;58315;53.336;55.932;2023-02-13T08:49:10;100415.28;;;-1.22;46.49
70730;BME280;58315;53.336;55.932;2023-02-13T08:51:36;100426.47;;;-1.19;46.19
70730;BME280;58315;53.336;55.932;2023-02-13T08:54:02;100413.97;;;-1.36;46.91
70730;BME280;58315;53.336;55.932;2023-02-13T08:56:28;100406.63;;;-1.52;46.71
70730;BME280;58315;53.336;55.932;2023-02-13T08:58:53;100410.63;;;-1.40;47.17
70730;BME280;58315;53.336;55.932;2023-02-13T09:01:20;100411.75;;;-1.19;46.87
70730;BME280;58315;53.336;55.932;2023-02-13T09:03:48;100408.34;;;-1.21;46.85
70730;BME280;58315;53.336;55.932;2023-02-13T09:06:14;100411.69;;;-1.17;47.36
70730;BME280;58315;53.336;55.932;2023-02-13T09:08:40;100410.94;;;-1.21;46.66
70730;BME280;58315;53.336;55.932;2023-02-13T09:11:08;100411.59;;;-1.13;46.80
70730;BME280;58315;53.336;55.932;2023-02-13T09:13:35;100410.38;;;-1.01;47.13
70730;BME280;58315;53.336;55.932;2023-02-13T09:16:03;100409.84;;;-0.84;46.75
70730;BME280;58315;53.336;55.932;2023-02-13T09:18:30;100402.44;;;-0.97;47.06
70730;BME280;58315;53.336;55.932;2023-02-13T09:21:03;100406.91;;;-0.72;47.20
70730;BME280;58315;53.336;55.932;2023-02-13T09:23:35;100403.25;;;-0.66;46.47
70730;BME280;58315;53.336;55.932;2023-02-13T09:26:03;100413.78;;;-0.71;47.00
70730;BME280;58315;53.336;55.932;2023-02-13T09:28:30;100407.16;;;-0.81;47.64
70730;BME280;58315;53.336;55.932;2023-02-13T09:30:57;100406.16;;;-0.77;47.34
70730;BME280;58315;53.336;55.932;2023-02-13T09:33:24;100400.47;;;-0.88;47.26
70730;BME280;58315;53.336;55.932;2023-02-13T09:35:50;100399.63;;;-0.89;47.75
70730;BME280;58315;53.336;55.932;2023-02-13T09:38:16;100405.47;;;-0.82;48.43
70730;BME280;58315;53.336;55.932;2023-02-13T09:40:47;100408.88;;;-0.80;47.84
70730;BME280;58315;53.336;55.932;2023-02-13T09:43:41;100407.91;;;-0.78;47.92
70730;BME280;58315;53.336;55.932;2023-02-13T09:46:21;100396.13;;;-0.88;48.78
70730;BME280;58315;53.336;55.932;2023-02-13T09:48:51;100403.78;;;-0.83;48.49
70730;BME280;58315;53.336;55.932;2023-02-13T09:51:19;100396.31;;;-0.94;48.58
70730;BME280;58315;53.336;55.932;2023-02-13T09:53:53;100400.75;;;-0.98;48.99
70730;BME280;58315;53.336;55.932;2023-02-13T09:56:35;100384.38;;;-1.00;49.14
70730;BME280;58315;53.336;55.932;2023-02-13T09:59:24;100391.91;;;-0.90;49.93
70730;BME280;58315;53.336;55.932;2023-02-13T10:01:56;100395.94;;;-0.82;50.18
70730;BME280;58315;53.336;55.932;2023-02-13T10:07:15;100390.19;;;-0.91;50.12
70730;BME280;58315;53.336;55.932;2023-02-13T10:12:45;100392.59;;;-0.85;49.86
70730;BME280;58315;53.336;55.932;2023-02-13T10:15:24;100393.44;;;-0.85;49.97
70730;BME280;58315;53.336;55.932;2023-02-13T10:18:02;100389.09;;;-0.84;50.43
70730;BME280;58315;53.336;55.932;2023-02-13T10:26:02;100390.28;;;-0.94;50.68
70730;BME280;58315;53.336;55.932;2023-02-13T10:28:39;100386.28;;;-1.06;51.42
70730;BME280;58315;53.336;55.932;2023-02-13T10:31:15;100386.41;;;-1.09;51.24
70730;BME280;58315;53.336;55.932;2023-02-13T10:33:49;100383.53;;;-1.00;51.58
70730;BME280;58315;53.336;55.932;2023-02-13T10:36:25;100385.53;;;-1.10;51.90
70730;BME280;58315;53.336;55.932;2023-02-13T10:38:59;100384.19;;;-0.93;51.90
70730;BME280;58315;53.336;55.932;2023-02-13T10:46:43;100385.41;;;-0.77;52.02
70730;BME280;58315;53.336;55.932;2023-02-13T10:52:20;100385.28;;;-0.73;51.49
70730;BME280;58315;53.336;55.932;2023-02-13T11:00:13;100384.75;;;-0.56;51.88
70730;BME280;58315;53.336;55.932;2023-02-13T11:02:43;100384.84;;;-0.59;50.87
70730;BME280;58315;53.336;55.932;2023-02-13T11:05:20;100383.72;;;-0.50;51.22
70730;BME280;58315;53.336;55.932;2023-02-13T11:07:47;100384.84;;;-0.59;51.09
70730;BME280;58315;53.336;55.932;2023-02-13T11:10:19;100381.16;;;-0.52;51.52
70730;BME280;58315;53.336;55.932;2023-02-13T11:12:46;100378.78;;;-0.58;51.22
70730;BME280;58315;53.336;55.932;2023-02-13T11:15:27;100378.78;;;-0.58;51.00
70730;BME280;58315;53.336;55.932;2023-02-13T11:17:59;100382.41;;;-0.63;51.06
70730;BME280;58315;53.336;55.932;2023-02-13T11:20:41;100382.25;;;-0.59;51.45
70730;BME280;58315;53.336;55.932;2023-02-13T11:26:00;100376.19;;;-0.58;51.36
70730;BME280;58315;53.336;55.932;2023-02-13T11:28:34;100384.63;;;-0.51;51.14
70730;BME280;58315;53.336;55.932;2023-02-13T11:31:13;100381.28;;;-0.55;51.30
70730;BME280;58315;53.336;55.932;2023-02-13T11:33:40;100379.34;;;-0.76;51.07
70730;BME280;58315;53.336;55.932;2023-02-13T11:36:09;100380.38;;;-0.82;51.28
70730;BME280;58315;53.336;55.932;2023-02-13T11:38:37;100379.81;;;-0.91;51.58
70730;BME280;58315;53.336;55.932;2023-02-13T11:41:13;100386.78;;;-0.93;52.00
70730;BME280;58315;53.336;55.932;2023-02-13T11:43:46;100371.50;;;-1.03;52.87
70730;BME280;58315;53.336;55.932;2023-02-13T11:46:24;100378.09;;;-0.92;52.52
70730;BME280;58315;53.336;55.932;2023-02-13T11:49:05;100375.56;;;-0.94;52.12
70730;BME280;58315;53.336;55.932;2023-02-13T11:51:38;100380.72;;;-1.22;53.09
70730;BME280;58315;53.336;55.932;2023-02-13T11:54:19;100374.00;;;-1.29;52.91
70730;BME280;58315;53.336;55.932;2023-02-13T11:56:49;100375.38;;;-1.17;53.36
70730;BME280;58315;53.336;55.932;2023-02-13T11:59:15;100378.63;;;-1.09;52.80
70730;BME280;58315;53.336;55.932;2023-02-13T12:01:41;100374.78;;;-1.26;53.66
70730;BME280;58315;53.336;55.932;2023-02-13T12:04:26;100369.94;;;-1.38;53.92
70730;BME280;58315;53.336;55.932;2023-02-13T12:07:01;100361.03;;;-1.29;54.22
70730;BME280;58315;53.336;55.932;2023-02-13T12:09:29;100361.09;;;-1.31;54.00
70730;BME280;58315;53.336;55.932;2023-02-13T12:11:57;100352.56;;;-1.34;54.08
70730;BME280;58315;53.336;55.932;2023-02-13T12:14:37;100355.06;;;-1.31;54.30
70730;BME280;58315;53.336;55.932;2023-02-13T12:17:06;100342.44;;;-1.43;54.03
70730;BME280;58315;53.336;55.932;2023-02-13T12:19:42;100345.72;;;-1.37;54.33
70730;BME280;58315;53.336;55.932;2023-02-13T12:54:32;100323.44;;;-1.44;54.29
70730;BME280;58315;53.336;55.932;2023-02-13T13:05:56;100309.88;;;-1.52;54.59
70730;BME280;58315;53.336;55.932;2023-02-13T13:08:41;100305.75;;;-1.59;54.88
70730;BME280;58315;53.336;55.932;2023-02-13T13:11:43;100306.75;;;-1.63;55.01
70730;BME280;58315;53.336;55.932;2023-02-13T13:17:30;100308.97;;;-1.81;55.24
70730;BME280;58315;53.336;55.932;2023-02-13T13:23:07;100307.28;;;-1.82;55.04
70730;BME280;58315;53.336;55.932;2023-02-13T13:25:51;100310.06;;;-1.89;55.50
70730;BME280;58315;53.336;55.932;2023-02-13T13:28:25;100311.00;;;-1.92;55.35
70730;BME280;58315;53.336;55.932;2023-02-13T13:30:52;100305.31;;;-2.05;55.93
70730;BME280;58315;53.336;55.932;2023-02-13T13:33:20;100300.03;;;-2.02;55.57
70730;BME280;58315;53.336;55.932;2023-02-13T13:36:03;100314.09;;;-2.10;56.06
70730;BME280;58315;53.336;55.932;2023-02-13T13:39:32;100312.63;;;-2.21;56.39
70730;BME280;58315;53.336;55.932;2023-02-13T13:44:03;100320.75;;;-2.02;56.67
70730;BME280;58315;53.336;55.932;2023-02-13T13:46:47;100313.72;;;-1.97;56.60
70730;BME280;58315;53.336;55.932;2023-02-13T13:49:51;100312.09;;;-2.01;56.69
70730;BME280;58315;53.336;55.932;2023-02-13T13:52:34;100316.19;;;-1.92;56.41
70730;BME280;58315;53.336;55.932;2023-02-13T13:55:04;100319.78;;;-1.98;57.00
70730;BME280;58315;53.336;55.932;2023-02-13T14:02:48;100323.38;;;-1.72;56.87
70730;BME280;58315;53.336;55.932;2023-02-13T14:05:29;100315.75;;;-1.77;57.17
70730;BME280;58315;53.336;55.932;2023-02-13T14:13:50;100318.06;;;-1.97;57.69
70730;BME280;58315;53.336;55.932;2023-02-13T14:16:38;100332.34;;;-1.84;57.08
70730;BME280;58315;53.336;55.932;2023-02-13T14:25:00;100316.38;;;-2.00;57.64
70730;BME280;58315;53.336;55.932;2023-02-13T14:29:58;100315.47;;;-1.97;57.42
70730;BME280;58315;53.336;55.932;2023-02-13T14:32:32;100309.16;;;-1.88;57.60
70730;BME280;58315;53.336;55.932;2023-02-13T14:35:13;100308.31;;;-1.89;57.49
70730;BME280;58315;53.336;55.932;2023-02-13T14:37:50;100307.28;;;-1.82;57.39
70730;BME280;58315;53.336;55.932;2023-02-13T14:42:45;100308.19;;;-1.84;57.46
70730;BME280;58315;53.336;55.932;2023-02-13T14:45:16;100303.63;;;-1.75;57.60
70730;BME280;58315;53.336;55.932;2023-02-13T14:47:46;100311.25;;;-1.70;57.47
70730;BME280;58315;53.336;55.932;2023-02-13T14:50:31;100302.53;;;-1.67;57.32
70730;BME280;58315;53.336;55.932;2023-02-13T14:53:06;100297.66;;;-1.78;57.24
70730;BME280;58315;53.336;55.932;2023-02-13T14:55:38;100279.06;;;-1.92;57.91
70730;BME280;58315;53.336;55.932;2023-02-13T14:58:21;100293.56;;;-1.87;57.78
70730;BME280;58315;53.336;55.932;2023-02-13T15:01:06;100280.75;;;-1.91;58.00
70730;BME280;58315;53.336;55.932;2023-02-13T15:03:42;100278.66;;;-2.08;58.54
70730;BME280;58315;53.336;55.932;2023-02-13T15:06:25;100277.53;;;-2.00;57.98
70730;BME280;58315;53.336;55.932;2023-02-13T15:08:53;100284.69;;;-2.08;57.78
70730;BME280;58315;53.336;55.932;2023-02-13T15:17:00;100288.25;;;-2.12;57.80
70730;BME280;58315;53.336;55.932;2023-02-13T15:19:28;100302.97;;;-2.14;58.30
70730;BME280;58315;53.336;55.932;2023-02-13T15:22:02;100309.53;;;-2.01;57.97
70730;BME280;58315;53.336;55.932;2023-02-13T15:24:53;100312.75;;;-1.92;57.79
70730;BME280;58315;53.336;55.932;2023-02-13T15:27:29;100314.06;;;-1.78;57.76
70730;BME280;58315;53.336;55.932;2023-02-13T15:32:40;100309.88;;;-1.83;57.29